Skip Navigation Links Skip Navigation Links

Current Weather

Harbor Springs, Mich.

For information only: do not use for flight planning or navigation.
Latest weather
Observation time Sunday, May 31, 2020 9:15 AM EDT
Local time Sunday, May 31, 2020 9:35 AM EDT
Flight conditions Visual Meteorological Conditions
Winds
Wind direction West-Southwest (250°)
Wind speed 7 mph
Visibility 10 mi.
Sky condition
Ceiling unlimited
Sky clear
Temperature 50°F
Dewpoint 37°F
Altimeter 30.32 in.Hg
Derived measurements
Relative humidity 60%
Density altitude -244 ft.
Remarks
Fully automated report.
Automated weather observing station with precipitation discriminator.
METAR KMGN 311315Z AUTO 25006KT 10SM CLR 10/02 A3032 RMK AO2 T01010027

Settings

Location code

InnerDrive.Weather 4.0.6770.0 Release CLR 4.0.30319.42000
Copyright ©2018 Inner Drive Technology. All rights reserved. Portions Copyright ©1986-2018 David Braverman.

Find weather

Site navigation


Skip Navigation Links

Place info

Page info

PayPal - The safer, easier way to pay online!

Return home.

Copyright ©2020 Inner Drive Technology. Purveyors of fine, hand-crafted computer software. Page printed 2020-05-31T13:35:50 UTC.